sensor_id;sensor_type;location;lat;lon;timestamp;pressure;altitude;pressure_sealevel;temperature;humidity
12664;BME280;6396;58.490;15.528;2023-04-29T00:01:24;100696.13;;;7.73;89.01
12664;BME280;6396;58.490;15.528;2023-04-29T00:03:51;100737.88;;;7.92;79.72
12664;BME280;6396;58.490;15.528;2023-04-29T00:06:19;100729.41;;;7.72;79.39
12664;BME280;6396;58.490;15.528;2023-04-29T00:08:45;100560.03;;;6.67;83.42
12664;BME280;6396;58.490;15.528;2023-04-29T00:11:12;100711.38;;;7.44;82.95
12664;BME280;6396;58.490;15.528;2023-04-29T00:13:39;100662.56;;;7.25;81.80
12664;BME280;6396;58.490;15.528;2023-04-29T00:16:06;100689.53;;;7.40;82.30
12664;BME280;6396;58.490;15.528;2023-04-29T00:18:36;100731.16;;;7.72;100.00
12664;BME280;6396;58.490;15.528;2023-04-29T00:21:04;100737.25;;;7.75;100.00
12664;BME280;6396;58.490;15.528;2023-04-29T00:23:31;100734.59;;;7.77;100.00
12664;BME280;6396;58.490;15.528;2023-04-29T00:26:03;100705.00;;;7.63;100.00
12664;BME280;6396;58.490;15.528;2023-04-29T00:28:30;100739.81;;;7.78;99.07
12664;BME280;6396;58.490;15.528;2023-04-29T00:31:04;100733.69;;;7.81;100.00
12664;BME280;6396;58.490;15.528;2023-04-29T00:33:31;100733.75;;;7.76;100.00
12664;BME280;6396;58.490;15.528;2023-04-29T00:36:00;100683.25;;;7.52;100.00
12664;BME280;6396;58.490;15.528;2023-04-29T00:38:27;100729.31;;;7.78;100.00
12664;BME280;6396;58.490;15.528;2023-04-29T00:40:55;100515.63;;;6.50;100.00
12664;BME280;6396;58.490;15.528;2023-04-29T00:43:22;100685.09;;;7.44;100.00
12664;BME280;6396;58.490;15.528;2023-04-29T00:45:51;100573.97;;;6.70;100.00
12664;BME280;6396;58.490;15.528;2023-04-29T00:48:18;100647.97;;;7.03;100.00
12664;BME280;6396;58.490;15.528;2023-04-29T00:50:45;100787.47;;;7.51;100.00
12664;BME280;6396;58.490;15.528;2023-04-29T00:53:13;100725.28;;;7.52;100.00
12664;BME280;6396;58.490;15.528;2023-04-29T00:55:47;100731.47;;;7.48;100.00
12664;BME280;6396;58.490;15.528;2023-04-29T00:58:16;100732.28;;;7.53;100.00
12664;BME280;6396;58.490;15.528;2023-04-29T01:00:49;100775.25;;;7.47;100.00
12664;BME280;6396;58.490;15.528;2023-04-29T01:03:17;100667.03;;;7.18;100.00
12664;BME280;6396;58.490;15.528;2023-04-29T01:05:57;100672.28;;;7.18;100.00
12664;BME280;6396;58.490;15.528;2023-04-29T01:08:35;100723.63;;;7.45;100.00
12664;BME280;6396;58.490;15.528;2023-04-29T01:11:10;100718.38;;;7.45;100.00
12664;BME280;6396;58.490;15.528;2023-04-29T01:13:42;100716.69;;;7.39;100.00
12664;BME280;6396;58.490;15.528;2023-04-29T01:16:14;100584.63;;;6.57;100.00
12664;BME280;6396;58.490;15.528;2023-04-29T01:18:49;100661.00;;;7.12;100.00
12664;BME280;6396;58.490;15.528;2023-04-29T01:21:21;100613.13;;;6.89;100.00
12664;BME280;6396;58.490;15.528;2023-04-29T01:23:49;100707.31;;;7.19;100.00
12664;BME280;6396;58.490;15.528;2023-04-29T01:26:20;100662.91;;;6.98;96.83
12664;BME280;6396;58.490;15.528;2023-04-29T01:28:52;100408.28;;;5.55;100.00
12664;BME280;6396;58.490;15.528;2023-04-29T01:31:24;100721.00;;;7.42;100.00
12664;BME280;6396;58.490;15.528;2023-04-29T01:34:07;100717.44;;;7.50;100.00
12664;BME280;6396;58.490;15.528;2023-04-29T01:36:50;100499.31;;;6.23;100.00
12664;BME280;6396;58.490;15.528;2023-04-29T01:39:29;100723.53;;;7.54;100.00
12664;BME280;6396;58.490;15.528;2023-04-29T01:42:05;100700.75;;;7.53;100.00
12664;BME280;6396;58.490;15.528;2023-04-29T01:44:37;100220.66;;;4.74;100.00
12664;BME280;6396;58.490;15.528;2023-04-29T01:47:09;100695.50;;;7.53;100.00
12664;BME280;6396;58.490;15.528;2023-04-29T01:49:38;100692.91;;;7.51;100.00
12664;BME280;6396;58.490;15.528;2023-04-29T01:52:06;100680.63;;;7.53;100.00
12664;BME280;6396;58.490;15.528;2023-04-29T01:54:35;100680.56;;;7.56;100.00
12664;BME280;6396;58.490;15.528;2023-04-29T01:57:12;100682.31;;;7.56;100.00
12664;BME280;6396;58.490;15.528;2023-04-29T01:59:39;100738.41;;;7.53;100.00
12664;BME280;6396;58.490;15.528;2023-04-29T02:02:08;100671.03;;;7.49;97.40
12664;BME280;6396;58.490;15.528;2023-04-29T02:04:35;100687.72;;;7.44;99.29
12664;BME280;6396;58.490;15.528;2023-04-29T02:07:02;100670.28;;;7.38;96.75
12664;BME280;6396;58.490;15.528;2023-04-29T02:09:29;100686.03;;;7.38;96.62
12664;BME280;6396;58.490;15.528;2023-04-29T02:11:57;100571.28;;;6.78;100.00
12664;BME280;6396;58.490;15.528;2023-04-29T02:14:24;100558.34;;;6.63;100.00
12664;BME280;6396;58.490;15.528;2023-04-29T02:16:53;100659.06;;;7.27;100.00
12664;BME280;6396;58.490;15.528;2023-04-29T02:19:19;100553.13;;;6.58;100.00
12664;BME280;6396;58.490;15.528;2023-04-29T02:21:47;100394.94;;;5.78;100.00
12664;BME280;6396;58.490;15.528;2023-04-29T02:24:14;100662.44;;;7.35;100.00
12664;BME280;6396;58.490;15.528;2023-04-29T02:26:41;100499.19;;;6.36;100.00
12664;BME280;6396;58.490;15.528;2023-04-29T02:29:09;100658.03;;;7.37;100.00
12664;BME280;6396;58.490;15.528;2023-04-29T02:31:45;100644.09;;;7.32;100.00
12664;BME280;6396;58.490;15.528;2023-04-29T02:34:12;100642.25;;;7.39;100.00
12664;BME280;6396;58.490;15.528;2023-04-29T02:36:39;100643.06;;;7.44;100.00
12664;BME280;6396;58.490;15.528;2023-04-29T02:39:06;100578.84;;;7.02;100.00
12664;BME280;6396;58.490;15.528;2023-04-29T02:41:33;100576.88;;;7.19;100.00
12664;BME280;6396;58.490;15.528;2023-04-29T02:43:59;100636.75;;;7.58;100.00
12664;BME280;6396;58.490;15.528;2023-04-29T02:46:28;100623.69;;;7.54;100.00
12664;BME280;6396;58.490;15.528;2023-04-29T02:48:57;100626.31;;;7.52;100.00
12664;BME280;6396;58.490;15.528;2023-04-29T02:51:27;100559.41;;;7.17;100.00
12664;BME280;6396;58.490;15.528;2023-04-29T02:53:55;100567.16;;;7.27;100.00
12664;BME280;6396;58.490;15.528;2023-04-29T02:56:23;100544.66;;;7.05;100.00
12664;BME280;6396;58.490;15.528;2023-04-29T02:58:51;100605.44;;;7.42;100.00
12664;BME280;6396;58.490;15.528;2023-04-29T03:01:17;100613.94;;;7.62;100.00
12664;BME280;6396;58.490;15.528;2023-04-29T03:03:46;100610.34;;;7.67;100.00
12664;BME280;6396;58.490;15.528;2023-04-29T03:06:14;100456.69;;;6.77;100.00
12664;BME280;6396;58.490;15.528;2023-04-29T03:08:41;100588.94;;;7.34;100.00
12664;BME280;6396;58.490;15.528;2023-04-29T03:11:18;100613.84;;;7.66;100.00
12664;BME280;6396;58.490;15.528;2023-04-29T03:13:45;100563.53;;;7.36;100.00
12664;BME280;6396;58.490;15.528;2023-04-29T03:16:14;100617.28;;;7.73;100.00
12664;BME280;6396;58.490;15.528;2023-04-29T03:18:41;100599.03;;;7.62;100.00
12664;BME280;6396;58.490;15.528;2023-04-29T03:21:18;100616.28;;;7.81;100.00
12664;BME280;6396;58.490;15.528;2023-04-29T03:23:45;100622.38;;;7.82;100.00
12664;BME280;6396;58.490;15.528;2023-04-29T03:26:14;100624.94;;;7.88;100.00
12664;BME280;6396;58.490;15.528;2023-04-29T03:28:41;100632.88;;;7.85;100.00
12664;BME280;6396;58.490;15.528;2023-04-29T03:31:08;100608.41;;;7.78;100.00
12664;BME280;6396;58.490;15.528;2023-04-29T03:33:36;100609.44;;;7.71;100.00
12664;BME280;6396;58.490;15.528;2023-04-29T03:36:03;100604.22;;;7.67;100.00
12664;BME280;6396;58.490;15.528;2023-04-29T03:38:32;100602.38;;;7.72;100.00
12664;BME280;6396;58.490;15.528;2023-04-29T03:40:58;100574.63;;;7.54;100.00
12664;BME280;6396;58.490;15.528;2023-04-29T03:43:27;100610.31;;;7.69;100.00
12664;BME280;6396;58.490;15.528;2023-04-29T03:45:54;100170.44;;;5.20;100.00
12664;BME280;6396;58.490;15.528;2023-04-29T03:48:25;100602.47;;;7.67;100.00
12664;BME280;6396;58.490;15.528;2023-04-29T03:50:52;100555.75;;;7.28;100.00
12664;BME280;6396;58.490;15.528;2023-04-29T03:53:21;100600.88;;;7.57;100.00
12664;BME280;6396;58.490;15.528;2023-04-29T03:55:49;100496.44;;;7.12;100.00
12664;BME280;6396;58.490;15.528;2023-04-29T03:58:20;100600.66;;;7.71;100.00
12664;BME280;6396;58.490;15.528;2023-04-29T04:00:48;100546.00;;;7.38;100.00
12664;BME280;6396;58.490;15.528;2023-04-29T04:03:14;100601.78;;;7.55;100.00
12664;BME280;6396;58.490;15.528;2023-04-29T04:05:41;100194.78;;;5.30;100.00
12664;BME280;6396;58.490;15.528;2023-04-29T04:08:12;100592.91;;;7.62;100.00
12664;BME280;6396;58.490;15.528;2023-04-29T04:10:39;100606.09;;;7.59;100.00
12664;BME280;6396;58.490;15.528;2023-04-29T04:13:07;100587.72;;;7.56;100.00
12664;BME280;6396;58.490;15.528;2023-04-29T04:15:34;100642.88;;;7.59;100.00
12664;BME280;6396;58.490;15.528;2023-04-29T04:18:03;100507.91;;;7.08;100.00
12664;BME280;6396;58.490;15.528;2023-04-29T04:20:29;100432.25;;;6.73;100.00
12664;BME280;6396;58.490;15.528;2023-04-29T04:23:04;100453.06;;;6.89;96.63
12664;BME280;6396;58.490;15.528;2023-04-29T04:25:30;100459.84;;;7.02;100.00
12664;BME280;6396;58.490;15.528;2023-04-29T04:27:57;100526.63;;;7.45;100.00
12664;BME280;6396;58.490;15.528;2023-04-29T04:30:25;100573.41;;;7.78;100.00
12664;BME280;6396;58.490;15.528;2023-04-29T04:32:54;100511.09;;;7.28;95.43
12664;BME280;6396;58.490;15.528;2023-04-29T04:35:21;100555.09;;;7.72;92.91
12664;BME280;6396;58.490;15.528;2023-04-29T04:37:49;100417.56;;;6.62;91.87
12664;BME280;6396;58.490;15.528;2023-04-29T04:40:15;100581.47;;;7.66;95.47
12664;BME280;6396;58.490;15.528;2023-04-29T04:42:43;100500.31;;;7.48;100.00
12664;BME280;6396;58.490;15.528;2023-04-29T04:45:10;100521.91;;;7.65;100.00
12664;BME280;6396;58.490;15.528;2023-04-29T04:47:46;100393.47;;;6.95;100.00
12664;BME280;6396;58.490;15.528;2023-04-29T04:50:12;100531.53;;;7.67;96.49
12664;BME280;6396;58.490;15.528;2023-04-29T04:52:39;100420.38;;;7.09;93.76
12664;BME280;6396;58.490;15.528;2023-04-29T04:55:08;100378.66;;;6.93;98.29
12664;BME280;6396;58.490;15.528;2023-04-29T04:57:36;100553.69;;;8.03;89.76
12664;BME280;6396;58.490;15.528;2023-04-29T05:00:03;100653.59;;;8.05;86.25
12664;BME280;6396;58.490;15.528;2023-04-29T05:02:32;100547.53;;;8.06;84.64
12664;BME280;6396;58.490;15.528;2023-04-29T05:05:00;100545.72;;;8.09;85.47
12664;BME280;6396;58.490;15.528;2023-04-29T05:07:27;100532.53;;;8.11;81.59
12664;BME280;6396;58.490;15.528;2023-04-29T05:09:54;100540.47;;;8.09;83.78
12664;BME280;6396;58.490;15.528;2023-04-29T05:12:21;100527.22;;;8.15;82.16
12664;BME280;6396;58.490;15.528;2023-04-29T05:14:52;100301.88;;;6.80;77.95
12664;BME280;6396;58.490;15.528;2023-04-29T05:17:21;100334.50;;;7.17;86.05
12664;BME280;6396;58.490;15.528;2023-04-29T05:19:47;100521.75;;;8.27;80.99
12664;BME280;6396;58.490;15.528;2023-04-29T05:22:16;100521.75;;;8.27;87.82
12664;BME280;6396;58.490;15.528;2023-04-29T05:24:43;100448.75;;;7.91;98.07
12664;BME280;6396;58.490;15.528;2023-04-29T05:27:10;100402.75;;;7.69;85.27
12664;BME280;6396;58.490;15.528;2023-04-29T05:29:36;100509.38;;;8.32;89.20
12664;BME280;6396;58.490;15.528;2023-04-29T05:32:04;100010.38;;;5.50;89.75
12664;BME280;6396;58.490;15.528;2023-04-29T05:34:32;100433.88;;;7.90;82.12
12664;BME280;6396;58.490;15.528;2023-04-29T05:36:59;100524.69;;;8.56;82.79
12664;BME280;6396;58.490;15.528;2023-04-29T05:39:27;100412.69;;;7.99;88.48
12664;BME280;6396;58.490;15.528;2023-04-29T05:41:55;100520.94;;;8.68;86.12
12664;BME280;6396;58.490;15.528;2023-04-29T05:44:23;100527.13;;;8.67;82.95
12664;BME280;6396;58.490;15.528;2023-04-29T05:46:53;100451.00;;;8.12;91.17
12664;BME280;6396;58.490;15.528;2023-04-29T05:49:20;100510.56;;;8.62;89.06
12664;BME280;6396;58.490;15.528;2023-04-29T05:51:48;100528.78;;;8.72;91.01
12664;BME280;6396;58.490;15.528;2023-04-29T05:54:15;100513.75;;;8.77;93.90
12664;BME280;6396;58.490;15.528;2023-04-29T05:56:45;100521.56;;;8.80;96.41
12664;BME280;6396;58.490;15.528;2023-04-29T05:59:12;100525.16;;;8.78;94.54
12664;BME280;6396;58.490;15.528;2023-04-29T06:01:39;100414.97;;;8.16;94.62
12664;BME280;6396;58.490;15.528;2023-04-29T06:04:06;100422.00;;;8.17;92.32
12664;BME280;6396;58.490;15.528;2023-04-29T06:06:32;100400.72;;;7.83;94.95
12664;BME280;6396;58.490;15.528;2023-04-29T06:08:59;100417.19;;;7.94;95.71
12664;BME280;6396;58.490;15.528;2023-04-29T06:11:26;100453.34;;;8.29;96.48
12664;BME280;6396;58.490;15.528;2023-04-29T06:13:56;100451.38;;;7.91;99.77
12664;BME280;6396;58.490;15.528;2023-04-29T06:16:22;100229.06;;;6.93;100.00
12664;BME280;6396;58.490;15.528;2023-04-29T06:18:49;100514.88;;;8.64;100.00
12664;BME280;6396;58.490;15.528;2023-04-29T06:21:16;100465.41;;;8.39;100.00
12664;BME280;6396;58.490;15.528;2023-04-29T06:23:44;100451.53;;;8.32;100.00
12664;BME280;6396;58.490;15.528;2023-04-29T06:26:11;100479.44;;;8.39;100.00
12664;BME280;6396;58.490;15.528;2023-04-29T06:28:38;100502.56;;;8.66;100.00
12664;BME280;6396;58.490;15.528;2023-04-29T06:31:06;100502.56;;;8.66;100.00
12664;BME280;6396;58.490;15.528;2023-04-29T06:33:34;100256.50;;;7.24;100.00
12664;BME280;6396;58.490;15.528;2023-04-29T06:36:01;100495.50;;;8.68;100.00
12664;BME280;6396;58.490;15.528;2023-04-29T06:38:34;100517.22;;;8.79;100.00
12664;BME280;6396;58.490;15.528;2023-04-29T06:41:01;100499.44;;;8.89;100.00
12664;BME280;6396;58.490;15.528;2023-04-29T06:43:29;100378.09;;;8.20;100.00
12664;BME280;6396;58.490;15.528;2023-04-29T06:45:56;100501.13;;;8.93;100.00
12664;BME280;6396;58.490;15.528;2023-04-29T06:48:27;100387.56;;;8.30;100.00
12664;BME280;6396;58.490;15.528;2023-04-29T06:50:56;100140.81;;;6.87;100.00
12664;BME280;6396;58.490;15.528;2023-04-29T06:53:23;100486.22;;;8.93;100.00
12664;BME280;6396;58.490;15.528;2023-04-29T06:55:50;100480.13;;;8.90;100.00
12664;BME280;6396;58.490;15.528;2023-04-29T06:58:18;100434.16;;;8.65;100.00
12664;BME280;6396;58.490;15.528;2023-04-29T07:00:46;100480.88;;;8.96;100.00
12664;BME280;6396;58.490;15.528;2023-04-29T07:03:14;100282.28;;;7.92;100.00
12664;BME280;6396;58.490;15.528;2023-04-29T07:05:43;100386.00;;;8.61;100.00
12664;BME280;6396;58.490;15.528;2023-04-29T07:08:12;100484.69;;;9.22;100.00
12664;BME280;6396;58.490;15.528;2023-04-29T07:10:39;100468.97;;;9.17;100.00
12664;BME280;6396;58.490;15.528;2023-04-29T07:13:07;100310.88;;;8.48;100.00
12664;BME280;6396;58.490;15.528;2023-04-29T07:15:34;100366.66;;;9.00;100.00
12664;BME280;6396;58.490;15.528;2023-04-29T07:18:07;99855.59;;;6.13;94.51
12664;BME280;6396;58.490;15.528;2023-04-29T07:20:35;100460.03;;;9.94;100.00
12664;BME280;6396;58.490;15.528;2023-04-29T07:23:04;100457.50;;;10.24;97.65
12664;BME280;6396;58.490;15.528;2023-04-29T07:25:31;100222.50;;;9.09;95.78
12664;BME280;6396;58.490;15.528;2023-04-29T07:28:00;100443.03;;;10.69;91.26
12664;BME280;6396;58.490;15.528;2023-04-29T07:30:27;100446.16;;;10.81;92.48
12664;BME280;6396;58.490;15.528;2023-04-29T07:32:55;100365.25;;;10.21;84.98
12664;BME280;6396;58.490;15.528;2023-04-29T07:35:22;100445.06;;;10.59;83.04
12664;BME280;6396;58.490;15.528;2023-04-29T07:37:49;100437.03;;;10.62;85.50
12664;BME280;6396;58.490;15.528;2023-04-29T07:40:17;100297.13;;;9.73;80.35
12664;BME280;6396;58.490;15.528;2023-04-29T07:42:49;100435.69;;;10.49;82.45
12664;BME280;6396;58.490;15.528;2023-04-29T07:45:16;100361.22;;;10.07;79.10
12664;BME280;6396;58.490;15.528;2023-04-29T07:47:43;100366.72;;;10.31;76.35
12664;BME280;6396;58.490;15.528;2023-04-29T07:50:11;100427.75;;;11.35;77.06
12664;BME280;6396;58.490;15.528;2023-04-29T07:52:38;100315.34;;;10.97;71.52
12664;BME280;6396;58.490;15.528;2023-04-29T07:55:05;100307.97;;;10.81;65.39
12664;BME280;6396;58.490;15.528;2023-04-29T07:57:36;100424.34;;;11.32;65.19
12664;BME280;6396;58.490;15.528;2023-04-29T08:00:04;100419.22;;;11.25;65.07
12664;BME280;6396;58.490;15.528;2023-04-29T08:02:33;100324.81;;;10.77;67.28
12664;BME280;6396;58.490;15.528;2023-04-29T08:04:59;100397.38;;;11.20;63.71
12664;BME280;6396;58.490;15.528;2023-04-29T08:07:26;100406.44;;;11.40;63.23
12664;BME280;6396;58.490;15.528;2023-04-29T08:09:53;100287.78;;;10.78;61.89
12664;BME280;6396;58.490;15.528;2023-04-29T08:12:21;100409.44;;;11.55;59.95
12664;BME280;6396;58.490;15.528;2023-04-29T08:14:49;100410.03;;;11.65;62.35
12664;BME280;6396;58.490;15.528;2023-04-29T08:17:25;100369.59;;;11.35;57.48
12664;BME280;6396;58.490;15.528;2023-04-29T08:19:52;100245.94;;;10.92;55.42
12664;BME280;6396;58.490;15.528;2023-04-29T08:22:19;100224.00;;;10.90;54.69
12664;BME280;6396;58.490;15.528;2023-04-29T08:24:46;100406.38;;;12.18;55.50
12664;BME280;6396;58.490;15.528;2023-04-29T08:27:14;100399.47;;;12.14;46.99
12664;BME280;6396;58.490;15.528;2023-04-29T08:29:40;100105.44;;;10.58;49.36
12664;BME280;6396;58.490;15.528;2023-04-29T08:32:09;100391.53;;;12.37;47.93
12664;BME280;6396;58.490;15.528;2023-04-29T08:34:36;100399.03;;;12.26;46.44
12664;BME280;6396;58.490;15.528;2023-04-29T08:37:02;100378.56;;;12.31;46.71
12664;BME280;6396;58.490;15.528;2023-04-29T08:39:31;100360.19;;;12.02;47.08
12664;BME280;6396;58.490;15.528;2023-04-29T08:41:57;100082.81;;;10.25;47.17
12664;BME280;6396;58.490;15.528;2023-04-29T08:44:25;100081.66;;;10.32;46.44
12664;BME280;6396;58.490;15.528;2023-04-29T08:46:52;100351.44;;;12.24;47.67
12664;BME280;6396;58.490;15.528;2023-04-29T08:49:21;100329.00;;;12.56;45.03
12664;BME280;6396;58.490;15.528;2023-04-29T08:51:48;100361.13;;;13.36;44.15
12664;BME280;6396;58.490;15.528;2023-04-29T08:54:16;100359.28;;;13.59;40.88
12664;BME280;6396;58.490;15.528;2023-04-29T08:56:44;100350.53;;;14.17;41.01
12664;BME280;6396;58.490;15.528;2023-04-29T08:59:13;100351.63;;;14.31;40.47
12664;BME280;6396;58.490;15.528;2023-04-29T09:01:42;100350.94;;;14.08;39.43
12664;BME280;6396;58.490;15.528;2023-04-29T09:04:24;100344.50;;;13.93;39.89
12664;BME280;6396;58.490;15.528;2023-04-29T09:06:55;100342.59;;;13.77;38.04
12664;BME280;6396;58.490;15.528;2023-04-29T09:09:25;99940.66;;;11.32;38.93
12664;BME280;6396;58.490;15.528;2023-04-29T09:11:52;100335.53;;;13.76;41.20
12664;BME280;6396;58.490;15.528;2023-04-29T09:14:21;100341.66;;;13.78;40.02
12664;BME280;6396;58.490;15.528;2023-04-29T09:16:48;100340.34;;;14.26;40.46
12664;BME280;6396;58.490;15.528;2023-04-29T09:19:30;100342.03;;;14.47;39.34
12664;BME280;6396;58.490;15.528;2023-04-29T09:21:57;100341.97;;;14.49;39.96
12664;BME280;6396;58.490;15.528;2023-04-29T09:24:25;100338.81;;;14.41;40.12
12664;BME280;6396;58.490;15.528;2023-04-29T09:26:52;100333.00;;;14.13;40.24
12664;BME280;6396;58.490;15.528;2023-04-29T09:29:19;100354.91;;;13.78;39.09
12664;BME280;6396;58.490;15.528;2023-04-29T09:31:47;100336.06;;;13.43;40.01
12664;BME280;6396;58.490;15.528;2023-04-29T09:34:14;100110.59;;;11.80;40.04
12664;BME280;6396;58.490;15.528;2023-04-29T09:36:44;100329.72;;;12.83;40.09
12664;BME280;6396;58.490;15.528;2023-04-29T09:39:12;100329.53;;;12.66;41.19
12664;BME280;6396;58.490;15.528;2023-04-29T09:41:57;100245.97;;;12.14;39.78
12664;BME280;6396;58.490;15.528;2023-04-29T09:44:26;100318.44;;;12.78;41.04
12664;BME280;6396;58.490;15.528;2023-04-29T09:46:54;100291.28;;;12.73;41.87
12664;BME280;6396;58.490;15.528;2023-04-29T09:49:23;100313.81;;;12.83;40.70
12664;BME280;6396;58.490;15.528;2023-04-29T09:51:56;100311.13;;;12.63;39.23
12664;BME280;6396;58.490;15.528;2023-04-29T09:54:25;100305.50;;;12.49;40.74
12664;BME280;6396;58.490;15.528;2023-04-29T09:56:54;100300.50;;;12.41;41.91
12664;BME280;6396;58.490;15.528;2023-04-29T09:59:21;100296.47;;;12.31;42.21
12664;BME280;6396;58.490;15.528;2023-04-29T10:01:50;100292.94;;;12.30;42.53
12664;BME280;6396;58.490;15.528;2023-04-29T10:04:19;100289.16;;;12.38;42.77
12664;BME280;6396;58.490;15.528;2023-04-29T10:06:48;100291.25;;;12.51;42.20
12664;BME280;6396;58.490;15.528;2023-04-29T10:09:19;100285.66;;;12.59;42.77
12664;BME280;6396;58.490;15.528;2023-04-29T10:11:47;100280.44;;;12.57;41.95
12664;BME280;6396;58.490;15.528;2023-04-29T10:14:16;100282.34;;;12.54;41.90
12664;BME280;6396;58.490;15.528;2023-04-29T10:16:47;100246.72;;;12.39;42.57
12664;BME280;6396;58.490;15.528;2023-04-29T10:19:18;100266.38;;;12.55;42.21
12664;BME280;6396;58.490;15.528;2023-04-29T10:21:49;100258.56;;;12.52;42.72
12664;BME280;6396;58.490;15.528;2023-04-29T10:24:20;100236.31;;;12.34;41.80
12664;BME280;6396;58.490;15.528;2023-04-29T10:26:49;100239.38;;;12.46;42.49
12664;BME280;6396;58.490;15.528;2023-04-29T10:29:18;100179.16;;;12.07;42.33
12664;BME280;6396;58.490;15.528;2023-04-29T10:31:47;100231.44;;;12.46;42.05
12664;BME280;6396;58.490;15.528;2023-04-29T10:34:16;100165.69;;;12.13;42.44
12664;BME280;6396;58.490;15.528;2023-04-29T10:36:43;100226.72;;;12.54;42.93
12664;BME280;6396;58.490;15.528;2023-04-29T10:39:18;100230.91;;;12.59;42.30
12664;BME280;6396;58.490;15.528;2023-04-29T10:41:49;100180.53;;;12.39;44.12
12664;BME280;6396;58.490;15.528;2023-04-29T10:44:17;100212.31;;;12.61;43.73
12664;BME280;6396;58.490;15.528;2023-04-29T10:46:44;100213.03;;;12.64;44.40
12664;BME280;6396;58.490;15.528;2023-04-29T10:49:11;100134.91;;;12.11;44.71
12664;BME280;6396;58.490;15.528;2023-04-29T10:51:39;100094.91;;;11.97;44.77
12664;BME280;6396;58.490;15.528;2023-04-29T10:54:09;100159.78;;;12.28;44.69
12664;BME280;6396;58.490;15.528;2023-04-29T10:56:42;100203.03;;;12.51;45.20
12664;BME280;6396;58.490;15.528;2023-04-29T10:59:12;100197.75;;;12.49;45.00
12664;BME280;6396;58.490;15.528;2023-04-29T11:01:44;100193.41;;;12.48;44.80
12664;BME280;6396;58.490;15.528;2023-04-29T11:04:12;100089.22;;;11.86;45.53
12664;BME280;6396;58.490;15.528;2023-04-29T11:06:41;100052.31;;;11.60;46.05
12664;BME280;6396;58.490;15.528;2023-04-29T11:09:10;100146.50;;;12.08;45.98
12664;BME280;6396;58.490;15.528;2023-04-29T11:11:58;100163.47;;;12.03;47.99
12664;BME280;6396;58.490;15.528;2023-04-29T11:14:34;100033.94;;;11.34;46.96
12664;BME280;6396;58.490;15.528;2023-04-29T11:17:03;100178.06;;;12.13;46.46
12664;BME280;6396;58.490;15.528;2023-04-29T11:19:40;100173.88;;;12.07;48.08
12664;BME280;6396;58.490;15.528;2023-04-29T11:22:12;100128.50;;;11.73;47.74
12664;BME280;6396;58.490;15.528;2023-04-29T11:24:50;100151.09;;;11.82;47.11
12664;BME280;6396;58.490;15.528;2023-04-29T11:27:18;99968.47;;;10.74;48.05
12664;BME280;6396;58.490;15.528;2023-04-29T11:29:49;99936.47;;;10.35;46.92
12664;BME280;6396;58.490;15.528;2023-04-29T11:32:19;100166.53;;;11.92;46.28
12664;BME280;6396;58.490;15.528;2023-04-29T11:34:46;100153.31;;;11.92;46.73
12664;BME280;6396;58.490;15.528;2023-04-29T11:37:21;100173.53;;;11.93;46.88
12664;BME280;6396;58.490;15.528;2023-04-29T11:39:49;100145.44;;;11.91;46.54
12664;BME280;6396;58.490;15.528;2023-04-29T11:42:19;100054.78;;;11.41;48.17
12664;BME280;6396;58.490;15.528;2023-04-29T11:44:52;100137.31;;;11.74;47.34
12664;BME280;6396;58.490;15.528;2023-04-29T11:47:25;100080.59;;;11.58;48.70
12664;BME280;6396;58.490;15.528;2023-04-29T11:49:52;100096.56;;;11.55;47.56
12664;BME280;6396;58.490;15.528;2023-04-29T11:52:19;100128.31;;;11.78;47.82
12664;BME280;6396;58.490;15.528;2023-04-29T11:54:46;100125.91;;;11.72;48.03
12664;BME280;6396;58.490;15.528;2023-04-29T11:57:13;100104.50;;;11.55;48.11
12664;BME280;6396;58.490;15.528;2023-04-29T11:59:41;100100.25;;;11.51;48.33
12664;BME280;6396;58.490;15.528;2023-04-29T12:02:12;100101.63;;;11.38;48.49
12664;BME280;6396;58.490;15.528;2023-04-29T12:04:48;100111.25;;;11.62;48.87
12664;BME280;6396;58.490;15.528;2023-04-29T12:07:15;100107.28;;;11.75;48.99
12664;BME280;6396;58.490;15.528;2023-04-29T12:09:43;99599.06;;;8.90;49.16
12664;BME280;6396;58.490;15.528;2023-04-29T12:12:14;99898.25;;;10.68;49.93
12664;BME280;6396;58.490;15.528;2023-04-29T12:14:41;99876.78;;;10.77;49.74
12664;BME280;6396;58.490;15.528;2023-04-29T12:17:09;100093.69;;;12.05;49.75
12664;BME280;6396;58.490;15.528;2023-04-29T12:19:38;100077.63;;;12.10;49.29
12664;BME280;6396;58.490;15.528;2023-04-29T12:22:05;99709.00;;;9.81;49.87
12664;BME280;6396;58.490;15.528;2023-04-29T12:24:34;100001.63;;;11.72;49.56
12664;BME280;6396;58.490;15.528;2023-04-29T12:27:01;100098.59;;;12.14;49.87
12664;BME280;6396;58.490;15.528;2023-04-29T12:29:30;100070.44;;;12.13;50.10
12664;BME280;6396;58.490;15.528;2023-04-29T12:31:57;100070.50;;;12.12;50.08
12664;BME280;6396;58.490;15.528;2023-04-29T12:34:25;99841.03;;;10.69;51.00
12664;BME280;6396;58.490;15.528;2023-04-29T12:36:55;99958.09;;;11.36;50.34
12664;BME280;6396;58.490;15.528;2023-04-29T12:39:23;100056.69;;;12.04;50.52
12664;BME280;6396;58.490;15.528;2023-04-29T12:41:54;100061.31;;;12.20;51.23
12664;BME280;6396;58.490;15.528;2023-04-29T12:44:22;100060.94;;;12.29;52.39
12664;BME280;6396;58.490;15.528;2023-04-29T12:46:50;99908.06;;;11.53;52.30
12664;BME280;6396;58.490;15.528;2023-04-29T12:49:18;100041.97;;;12.38;51.03
12664;BME280;6396;58.490;15.528;2023-04-29T12:51:45;100001.25;;;12.01;51.49
12664;BME280;6396;58.490;15.528;2023-04-29T12:54:14;99946.38;;;11.86;52.15
12664;BME280;6396;58.490;15.528;2023-04-29T12:56:41;100026.25;;;12.35;51.34
12664;BME280;6396;58.490;15.528;2023-04-29T12:59:08;99917.56;;;11.57;51.63
12664;BME280;6396;58.490;15.528;2023-04-29T13:01:36;100034.41;;;12.09;52.42